Time;durP1;ratioP1;P1;durP2;ratioP2;P2;SDS_P1;SDS_P2;PMS_P1;PMS_P2;Temp;Humidity;BMP_temperature;BMP_pressure;BME280_temperature;BME280_humidity;BME280_pressure;Samples;Min_cycle;Max_cycle;Signal;HPM_P1;HPM_P2
2021/08/10 00:01:29;;;;;;;;;;;;;;;21.45;57.20;101427.25;5053967;27;98940;-77
2021/08/10 00:03:55;;;;;;;;;;;;;;;21.24;57.95;101434.97;5053571;27;98800;-75
2021/08/10 00:06:22;;;;;;;;;;;;;;;21.19;58.18;101437.13;5071654;27;96736;-76
2021/08/10 00:08:49;;;;;;;;;;;;;;;21.19;58.16;101425.50;5066621;27;97098;-76
2021/08/10 00:11:16;;;;;;;;;;;;;;;21.35;57.79;101429.69;5054104;27;98914;-77
2021/08/10 00:13:42;;;;;;;;;;;;;;;21.28;58.08;101428.41;5053286;27;98858;-76
2021/08/10 00:16:08;;;;;;;;;;;;;;;21.27;57.65;101428.50;5035993;27;97064;-76
2021/08/10 00:18:34;;;;;;;;;;;;;;;21.06;58.02;101437.06;5039122;27;97049;-77
2021/08/10 00:21:01;;;;;;;;;;;;;;;21.21;57.78;101429.78;5068357;27;99263;-76
2021/08/10 00:23:27;;;;;;;;;;;;;;;21.11;58.17;101442.13;5069535;27;99248;-77
2021/08/10 00:25:54;;;;;;;;;;;;;;;21.21;57.35;101428.91;5054158;27;96968;-77
2021/08/10 00:28:21;;;;;;;;;;;;;;;21.07;57.81;101428.00;5053708;27;96816;-76
2021/08/10 00:30:47;;;;;;;;;;;;;;;21.12;57.57;101422.34;5053484;27;98888;-76
2021/08/10 00:33:14;;;;;;;;;;;;;;;21.08;57.67;101429.75;5053536;27;98164;-77
2021/08/10 00:35:40;;;;;;;;;;;;;;;21.08;57.67;101432.41;5067001;27;96759;-77
2021/08/10 00:38:06;;;;;;;;;;;;;;;21.09;57.60;101430.59;5070885;27;96794;-76
2021/08/10 00:40:33;;;;;;;;;;;;;;;21.04;57.91;101436.28;5057738;27;98105;-76
2021/08/10 00:43:00;;;;;;;;;;;;;;;20.97;58.10;101431.44;5057059;27;98802;-77
2021/08/10 00:45:27;;;;;;;;;;;;;;;20.91;58.27;101437.22;5058050;27;96851;-77
2021/08/10 00:47:53;;;;;;;;;;;;;;;20.99;58.29;101430.38;5056947;27;96836;-76
2021/08/10 00:50:19;;;;;;;;;;;;;;;21.02;57.66;101430.16;5064677;27;99227;-79
2021/08/10 00:52:45;;;;;;;;;;;;;;;21.01;57.89;101443.69;5078021;27;98973;-76
2021/08/10 00:55:12;;;;;;;;;;;;;;;20.87;58.30;101431.19;5056397;27;96950;-77
2021/08/10 00:57:38;;;;;;;;;;;;;;;20.87;58.47;101436.56;5058212;27;96784;-77
2021/08/10 01:00:07;;;;;;;;;;;;;;;21.00;57.73;101445.50;5056352;27;99045;-76
2021/08/10 01:02:34;;;;;;;;;;;;;;;20.96;57.66;101435.94;5056787;27;98183;-76
2021/08/10 01:05:00;;;;;;;;;;;;;;;20.97;57.63;101432.31;5061021;27;96903;-77
2021/08/10 01:07:32;;;;;;;;;;;;;;;20.90;57.73;101436.38;5069907;27;97550;-77
2021/08/10 01:10:05;;;;;;;;;;;;;;;20.93;57.63;101438.00;5056082;27;99042;-76
2021/08/10 01:12:33;;;;;;;;;;;;;;;20.99;57.48;101432.22;5055613;27;98854;-76
2021/08/10 01:15:02;;;;;;;;;;;;;;;20.97;57.56;101429.63;5055412;27;96744;-76
2021/08/10 01:17:33;;;;;;;;;;;;;;;20.84;57.83;101430.56;5056537;27;96826;-77
2021/08/10 01:20:23;;;;;;;;;;;;;;;20.95;57.59;101423.47;5060978;27;99056;-77
2021/08/10 01:22:51;;;;;;;;;;;;;;;20.95;57.40;101431.53;5036184;27;99839;-76
2021/08/10 01:25:29;;;;;;;;;;;;;;;21.03;57.03;101426.50;5057284;27;96701;-77
2021/08/10 01:28:03;;;;;;;;;;;;;;;20.85;57.43;101424.22;5054455;27;97593;-77
2021/08/10 01:30:35;;;;;;;;;;;;;;;21.03;57.14;101425.66;5059044;27;98908;-76
2021/08/10 01:33:05;;;;;;;;;;;;;;;20.85;57.73;101429.59;5057070;27;98869;-76
2021/08/10 01:35:33;;;;;;;;;;;;;;;20.89;57.38;101431.09;5067651;27;96902;-77
2021/08/10 01:38:02;;;;;;;;;;;;;;;20.90;57.19;101422.06;5059612;27;98186;-76
2021/08/10 01:40:29;;;;;;;;;;;;;;;20.68;57.54;101419.97;5055260;27;99295;-76
2021/08/10 01:42:57;;;;;;;;;;;;;;;20.74;57.39;101424.09;5058216;27;99602;-77
2021/08/10 01:45:23;;;;;;;;;;;;;;;20.65;57.76;101430.94;5061441;27;97010;-76
2021/08/10 01:47:50;;;;;;;;;;;;;;;20.65;58.26;101422.88;5059848;27;97666;-76
2021/08/10 01:50:18;;;;;;;;;;;;;;;20.59;57.82;101425.97;5064896;27;98893;-75
2021/08/10 01:52:45;;;;;;;;;;;;;;;20.45;58.32;101423.34;5075493;27;98795;-76
2021/08/10 01:55:12;;;;;;;;;;;;;;;20.59;58.21;101431.34;5056507;27;96691;-76
2021/08/10 01:57:38;;;;;;;;;;;;;;;20.69;57.55;101422.56;5057769;27;96778;-77
2021/08/10 02:00:05;;;;;;;;;;;;;;;20.67;57.56;101429.00;5056295;27;98234;-77
2021/08/10 02:02:32;;;;;;;;;;;;;;;20.73;57.70;101428.59;5054143;27;99128;-76
2021/08/10 02:05:00;;;;;;;;;;;;;;;20.76;57.58;101431.06;5060825;27;96825;-77
2021/08/10 02:07:28;;;;;;;;;;;;;;;20.24;58.94;101423.75;5072456;27;96975;-77
2021/08/10 02:09:54;;;;;;;;;;;;;;;20.43;58.54;101430.63;5058692;27;99296;-77
2021/08/10 02:12:21;;;;;;;;;;;;;;;20.56;57.84;101431.53;5055222;27;99486;-77
2021/08/10 02:14:47;;;;;;;;;;;;;;;20.56;58.17;101431.53;5058727;27;96835;-76
2021/08/10 02:17:14;;;;;;;;;;;;;;;20.68;57.80;101433.38;5057310;27;96812;-76
2021/08/10 02:19:41;;;;;;;;;;;;;;;20.64;58.03;101434.56;5059551;27;98919;-75
2021/08/10 02:22:08;;;;;;;;;;;;;;;20.76;57.45;101433.75;5080664;27;98857;-76
2021/08/10 02:24:39;;;;;;;;;;;;;;;20.55;58.12;101435.16;5061505;27;96895;-76
2021/08/10 02:27:06;;;;;;;;;;;;;;;20.61;57.63;101432.09;5059065;27;96899;-75
2021/08/10 02:29:35;;;;;;;;;;;;;;;20.62;58.04;101440.03;5058121;27;98955;-76
2021/08/10 02:32:01;;;;;;;;;;;;;;;20.66;57.59;101446.09;5060915;27;98882;-76
2021/08/10 02:34:28;;;;;;;;;;;;;;;20.66;57.54;101441.56;5058068;27;96805;-76
2021/08/10 02:36:59;;;;;;;;;;;;;;;20.64;57.86;101445.31;5056534;27;96774;-76
2021/08/10 02:39:26;;;;;;;;;;;;;;;20.89;58.00;101444.53;5055961;27;98902;-75
2021/08/10 02:41:54;;;;;;;;;;;;;;;20.91;57.11;101438.09;5056931;27;101274;-76
2021/08/10 02:44:21;;;;;;;;;;;;;;;20.83;57.50;101435.06;5055609;27;96971;-75
2021/08/10 02:46:47;;;;;;;;;;;;;;;20.77;57.95;101429.25;5057311;27;96847;-76
2021/08/10 02:49:13;;;;;;;;;;;;;;;20.83;57.84;101428.81;5054876;27;98540;-76
2021/08/10 02:51:40;;;;;;;;;;;;;;;20.72;58.36;101426.00;5074732;27;97614;-75
2021/08/10 02:54:06;;;;;;;;;;;;;;;20.82;57.09;101427.97;5057890;27;96843;-75
2021/08/10 02:56:34;;;;;;;;;;;;;;;20.75;57.17;101426.66;5055252;27;97338;-75
2021/08/10 02:59:05;;;;;;;;;;;;;;;20.77;57.47;101427.41;5054335;27;102025;-75
2021/08/10 03:01:33;;;;;;;;;;;;;;;20.65;57.87;101431.78;5054838;27;98895;-78
2021/08/10 03:04:01;;;;;;;;;;;;;;;20.71;57.27;101427.84;5054642;27;96879;-75
2021/08/10 03:06:29;;;;;;;;;;;;;;;20.62;57.75;101434.66;5056290;27;96760;-75
2021/08/10 03:08:58;;;;;;;;;;;;;;;20.68;57.39;101433.38;5051862;27;99145;-76
2021/08/10 03:11:24;;;;;;;;;;;;;;;20.59;57.70;101431.34;5054088;27;99107;-75
2021/08/10 03:13:52;;;;;;;;;;;;;;;20.73;57.22;101428.59;5053918;27;96836;-75
2021/08/10 03:16:20;;;;;;;;;;;;;;;20.64;57.58;101418.47;5055095;27;96784;-76
2021/08/10 03:18:50;;;;;;;;;;;;;;;20.55;57.75;101427.97;5053463;27;98918;-75
2021/08/10 03:21:16;;;;;;;;;;;;;;;20.52;57.53;101430.88;5063261;27;99397;-76
2021/08/10 03:23:44;;;;;;;;;;;;;;;20.59;57.95;101431.34;5055792;27;96655;-76
2021/08/10 03:26:14;;;;;;;;;;;;;;;20.40;58.27;101431.69;5055000;27;97604;-76
2021/08/10 03:28:41;;;;;;;;;;;;;;;20.61;57.65;101426.75;5053329;27;99137;-76
2021/08/10 03:31:08;;;;;;;;;;;;;;;20.70;57.15;101426.09;5053932;27;98762;-76
2021/08/10 03:33:36;;;;;;;;;;;;;;;20.69;57.23;101430.63;5055965;27;96772;-75
2021/08/10 03:36:03;;;;;;;;;;;;;;;20.66;57.14;101427.28;5054789;27;96803;-75
2021/08/10 03:38:29;;;;;;;;;;;;;;;20.56;57.44;101423.47;5053471;27;98854;-76
2021/08/10 03:40:56;;;;;;;;;;;;;;;20.51;57.26;101421.09;5052517;27;98755;-75
2021/08/10 03:43:23;;;;;;;;;;;;;;;20.69;56.46;101417.19;5052355;27;96825;-75
2021/08/10 03:45:52;;;;;;;;;;;;;;;20.62;56.82;101409.63;5054772;27;97022;-76
2021/08/10 03:48:18;;;;;;;;;;;;;;;20.72;56.67;101410.75;5053374;27;98874;-76
2021/08/10 03:50:46;;;;;;;;;;;;;;;20.76;56.49;101414.94;5053586;27;98045;-76
2021/08/10 03:53:13;;;;;;;;;;;;;;;20.69;56.80;101402.88;5052001;27;96979;-78
2021/08/10 03:55:39;;;;;;;;;;;;;;;20.45;57.68;101413.47;5052567;27;97134;-76
2021/08/10 03:58:06;;;;;;;;;;;;;;;20.48;57.35;101415.09;5053897;27;98784;-76
2021/08/10 04:00:34;;;;;;;;;;;;;;;20.30;57.84;101426.03;5053851;27;99075;-77
2021/08/10 04:03:00;;;;;;;;;;;;;;;20.32;58.03;101409.81;5057191;27;96736;-76
2021/08/10 04:05:27;;;;;;;;;;;;;;;20.30;58.04;101409.91;5063665;27;96854;-76
2021/08/10 04:07:55;;;;;;;;;;;;;;;20.37;58.02;101415.78;5052309;27;98975;-77
2021/08/10 04:10:22;;;;;;;;;;;;;;;20.44;57.15;101416.22;5053684;27;98923;-77
2021/08/10 04:12:48;;;;;;;;;;;;;;;20.55;57.37;101419.94;5051978;27;98590;-77
2021/08/10 04:15:14;;;;;;;;;;;;;;;20.48;57.38;101412.41;5054222;27;96762;-77
2021/08/10 04:17:42;;;;;;;;;;;;;;;20.45;57.08;101413.47;5046699;27;98984;-76
2021/08/10 04:20:08;;;;;;;;;;;;;;;20.68;56.69;101404.72;5050713;27;98928;-76
2021/08/10 04:22:35;;;;;;;;;;;;;;;20.74;56.48;101414.22;5054295;27;97092;-77
2021/08/10 04:25:02;;;;;;;;;;;;;;;20.76;56.52;101416.78;5051593;27;96954;-77
2021/08/10 04:27:28;;;;;;;;;;;;;;;20.68;56.42;101417.28;5051026;27;99500;-75
2021/08/10 04:29:55;;;;;;;;;;;;;;;20.83;56.15;101410.03;5052128;27;99015;-77
2021/08/10 04:32:21;;;;;;;;;;;;;;;20.87;56.29;101422.31;5052264;27;96838;-77
2021/08/10 04:34:47;;;;;;;;;;;;;;;20.96;55.60;101414.47;5055630;27;97197;-76
2021/08/10 04:37:15;;;;;;;;;;;;;;;20.75;56.40;101415.91;5053652;27;98972;-76
2021/08/10 04:39:42;;;;;;;;;;;;;;;20.92;55.97;101418.34;5052362;27;99276;-75
2021/08/10 04:42:09;;;;;;;;;;;;;;;20.95;56.07;101415.41;5052280;27;96838;-76
2021/08/10 04:44:35;;;;;;;;;;;;;;;21.04;56.10;101412.13;5052554;27;96973;-76
2021/08/10 04:47:02;;;;;;;;;;;;;;;21.23;55.14;101400.13;5052177;27;98865;-75
2021/08/10 04:49:28;;;;;;;;;;;;;;;21.14;55.29;101403.41;5053388;27;99303;-76
2021/08/10 04:51:54;;;;;;;;;;;;;;;21.35;54.76;101405.50;5055036;27;97871;-76
2021/08/10 04:54:20;;;;;;;;;;;;;;;21.36;54.94;101406.38;5051830;27;97183;-76
2021/08/10 04:56:47;;;;;;;;;;;;;;;21.42;54.89;101406.78;5052580;27;99418;-76
2021/08/10 04:59:14;;;;;;;;;;;;;;;21.57;54.59;101412.06;5052139;27;98906;-77
2021/08/10 05:01:44;;;;;;;;;;;;;;;21.58;54.31;101405.72;5050973;27;96748;-76
2021/08/10 05:04:10;;;;;;;;;;;;;;;21.60;54.60;101399.25;5053515;27;96842;-75
2021/08/10 05:06:37;;;;;;;;;;;;;;;21.70;53.99;101402.16;5060992;27;99547;-74
2021/08/10 05:09:03;;;;;;;;;;;;;;;21.79;53.96;101394.25;5052029;27;98451;-74
2021/08/10 05:11:29;;;;;;;;;;;;;;;21.81;53.59;101399.53;5051798;27;96699;-75
2021/08/10 05:13:56;;;;;;;;;;;;;;;21.95;53.35;101401.22;5051828;27;96919;-75
2021/08/10 05:16:23;;;;;;;;;;;;;;;22.00;53.17;101397.25;5053106;27;99011;-75
2021/08/10 05:18:49;;;;;;;;;;;;;;;21.97;53.44;101402.03;5051100;27;100978;-76
2021/08/10 05:21:16;;;;;;;;;;;;;;;22.26;52.21;101403.41;5042484;27;97127;-77
2021/08/10 05:23:43;;;;;;;;;;;;;;;22.02;52.81;101399.84;5048794;27;98643;-76
2021/08/10 05:26:09;;;;;;;;;;;;;;;22.19;52.41;101402.16;5055386;27;99269;-76
2021/08/10 05:28:35;;;;;;;;;;;;;;;22.20;52.19;101399.34;5055524;27;99161;-76
2021/08/10 05:31:02;;;;;;;;;;;;;;;22.35;51.48;101394.69;5052916;27;96925;-76
2021/08/10 05:33:29;;;;;;;;;;;;;;;22.39;51.52;101390.78;5051889;27;96911;-77
2021/08/10 05:35:56;;;;;;;;;;;;;;;22.65;51.36;101386.13;5051407;27;97777;-75
2021/08/10 05:38:24;;;;;;;;;;;;;;;22.88;50.59;101379.00;5057383;27;98839;-78
2021/08/10 05:40:50;;;;;;;;;;;;;;;23.95;48.05;101388.47;5056361;27;96871;-77
2021/08/10 05:43:17;;;;;;;;;;;;;;;25.53;43.89;101387.66;5057644;27;97409;-77
2021/08/10 05:45:43;;;;;;;;;;;;;;;24.96;44.60;101392.56;5055458;27;99027;-76
2021/08/10 05:48:10;;;;;;;;;;;;;;;24.23;46.24;101398.72;5050377;27;98065;-77
2021/08/10 05:50:38;;;;;;;;;;;;;;;23.88;47.30;101398.03;5061546;27;96784;-76
2021/08/10 05:53:04;;;;;;;;;;;;;;;23.32;48.56;101389.88;5051193;27;96876;-76
2021/08/10 05:55:31;;;;;;;;;;;;;;;23.48;48.31;101394.09;5049230;27;97890;-77
2021/08/10 05:57:57;;;;;;;;;;;;;;;23.33;48.60;101388.91;5052034;27;98813;-77
2021/08/10 06:00:23;;;;;;;;;;;;;;;23.39;48.44;101388.41;5055568;27;97309;-78
2021/08/10 06:02:49;;;;;;;;;;;;;;;23.45;48.25;101385.25;5058890;27;97024;-75
2021/08/10 06:05:16;;;;;;;;;;;;;;;23.54;47.96;101380.13;5058216;27;97713;-77
2021/08/10 06:07:44;;;;;;;;;;;;;;;23.33;48.57;101382.66;5051375;27;98385;-76
2021/08/10 06:10:10;;;;;;;;;;;;;;;23.54;47.86;101382.84;5057146;27;96925;-76
2021/08/10 06:12:36;;;;;;;;;;;;;;;23.66;47.52;101371.06;5056425;27;96897;-77
2021/08/10 06:15:03;;;;;;;;;;;;;;;23.69;47.39;101373.53;5060224;27;98828;-77
2021/08/10 06:17:29;;;;;;;;;;;;;;;23.50;47.61;101368.72;5055998;27;97934;-76
2021/08/10 06:19:55;;;;;;;;;;;;;;;23.72;47.43;101382.22;5050601;27;97066;-76
2021/08/10 06:22:22;;;;;;;;;;;;;;;23.61;47.72;101390.31;5055243;27;96831;-77
2021/08/10 06:24:49;;;;;;;;;;;;;;;23.89;47.37;101380.88;5056204;27;98899;-76
2021/08/10 06:27:16;;;;;;;;;;;;;;;24.06;46.61;101376.78;5056477;27;99606;-77
2021/08/10 06:29:42;;;;;;;;;;;;;;;23.95;46.92;101385.75;5057166;27;97767;-76
2021/08/10 06:32:08;;;;;;;;;;;;;;;23.67;47.82;101375.47;5052374;27;97104;-76
2021/08/10 06:34:35;;;;;;;;;;;;;;;23.38;48.90;101378.59;5052773;27;97774;-77
2021/08/10 06:37:01;;;;;;;;;;;;;;;23.69;48.13;101384.31;5053237;27;98810;-75
2021/08/10 06:39:27;;;;;;;;;;;;;;;24.62;46.04;101386.44;5054921;27;96894;-76
2021/08/10 06:41:55;;;;;;;;;;;;;;;25.94;42.45;101373.16;5053515;27;97691;-75
2021/08/10 06:44:21;;;;;;;;;;;;;;;27.37;38.91;101366.91;5054341;27;98909;-76
2021/08/10 06:46:47;;;;;;;;;;;;;;;27.54;38.12;101372.59;5055389;27;99151;-77
2021/08/10 06:49:13;;;;;;;;;;;;;;;27.02;39.48;101365.88;5051678;27;96908;-75
2021/08/10 06:51:40;;;;;;;;;;;;;;;26.38;40.41;101359.19;5056011;27;96887;-76
2021/08/10 06:54:06;;;;;;;;;;;;;;;26.23;40.36;101357.84;5054189;27;99313;-77
2021/08/10 06:56:32;;;;;;;;;;;;;;;25.71;41.79;101357.16;5050140;27;99241;-77
2021/08/10 06:59:00;;;;;;;;;;;;;;;25.70;41.72;101359.97;5047667;27;97317;-77
2021/08/10 07:01:26;;;;;;;;;;;;;;;25.50;41.27;101353.59;5050961;27;97197;-76
2021/08/10 07:03:53;;;;;;;;;;;;;;;24.70;43.35;101361.47;5053318;27;98903;-76
2021/08/10 07:06:20;;;;;;;;;;;;;;;24.42;44.11;101359.38;5064829;27;100446;-77
2021/08/10 07:08:48;;;;;;;;;;;;;;;24.71;44.08;101365.91;5054264;27;97024;-76
2021/08/10 07:11:14;;;;;;;;;;;;;;;24.68;43.37;101365.31;5052891;27;97681;-76
2021/08/10 07:13:40;;;;;;;;;;;;;;;25.09;43.09;101370.75;5054968;27;98294;-78
2021/08/10 07:16:08;;;;;;;;;;;;;;;25.05;43.78;101372.00;5046706;27;98170;-77
2021/08/10 07:18:37;;;;;;;;;;;;;;;25.09;43.92;101354.53;5050990;27;96850;-77
2021/08/10 07:21:03;;;;;;;;;;;;;;;25.05;44.09;101353.09;5047401;27;98775;-76
2021/08/10 07:23:29;;;;;;;;;;;;;;;25.04;44.04;101347.81;5055695;27;99200;-77
2021/08/10 07:25:55;;;;;;;;;;;;;;;24.90;44.79;101354.41;5053999;27;99201;-77
2021/08/10 07:28:22;;;;;;;;;;;;;;;25.13;43.54;101344.31;5049618;27;97206;-77
2021/08/10 07:30:48;;;;;;;;;;;;;;;24.79;44.09;101363.41;5045710;27;97957;-76
2021/08/10 07:33:15;;;;;;;;;;;;;;;25.00;43.86;101364.31;5041039;27;98908;-75
2021/08/10 07:35:42;;;;;;;;;;;;;;;25.07;43.87;101367.34;5046410;27;98783;-76
2021/08/10 07:38:08;;;;;;;;;;;;;;;25.17;43.68;101367.38;5054101;27;98243;-76
2021/08/10 07:40:34;;;;;;;;;;;;;;;25.06;44.02;101376.44;5041765;27;97702;-77
2021/08/10 07:43:00;;;;;;;;;;;;;;;25.11;44.23;101379.59;5052418;27;98906;-77
2021/08/10 07:45:27;;;;;;;;;;;;;;;25.28;43.45;101375.41;5049154;27;99123;-77
2021/08/10 07:47:54;;;;;;;;;;;;;;;25.56;43.45;101380.13;5041914;27;98244;-78
2021/08/10 07:50:22;;;;;;;;;;;;;;;25.72;42.77;101372.41;5056943;27;97270;-77
2021/08/10 07:52:48;;;;;;;;;;;;;;;25.61;43.37;101377.88;5053051;27;99247;-76
2021/08/10 07:55:14;;;;;;;;;;;;;;;25.74;43.19;101373.09;5052440;27;99053;-77
2021/08/10 07:57:41;;;;;;;;;;;;;;;25.63;43.53;101369.63;5053077;27;97272;-77
2021/08/10 08:00:08;;;;;;;;;;;;;;;25.87;43.19;101362.03;5052263;27;98632;-76
2021/08/10 08:02:34;;;;;;;;;;;;;;;25.72;42.89;101364.28;5038786;27;98733;-77
2021/08/10 08:05:01;;;;;;;;;;;;;;;25.46;43.28;101362.13;5042201;27;101285;-77
2021/08/10 08:07:29;;;;;;;;;;;;;;;25.65;42.98;101357.69;5049200;27;97649;-79
2021/08/10 08:09:56;;;;;;;;;;;;;;;25.56;42.98;101361.16;5050356;27;99181;-77
2021/08/10 08:12:22;;;;;;;;;;;;;;;25.33;43.56;101346.13;5051814;27;98892;-76
2021/08/10 08:14:48;;;;;;;;;;;;;;;25.41;43.32;101349.00;5050825;27;98805;-77
2021/08/10 08:17:14;;;;;;;;;;;;;;;25.12;43.62;101342.59;5051983;27;97497;-77
2021/08/10 08:19:41;;;;;;;;;;;;;;;25.19;43.36;101349.19;5053248;27;97460;-77
2021/08/10 08:22:07;;;;;;;;;;;;;;;25.33;43.19;101349.69;5052708;27;98896;-76
2021/08/10 08:24:35;;;;;;;;;;;;;;;25.43;43.62;101357.84;5051594;27;98046;-77
2021/08/10 08:27:01;;;;;;;;;;;;;;;25.34;44.03;101364.03;5058100;27;96853;-77
2021/08/10 08:29:27;;;;;;;;;;;;;;;25.50;43.68;101358.16;5054382;27;96765;-76
2021/08/10 08:31:54;;;;;;;;;;;;;;;25.56;43.96;101342.22;5064096;27;97798;-76
2021/08/10 08:34:20;;;;;;;;;;;;;;;25.55;44.18;101351.34;5054927;27;99997;-75
2021/08/10 08:36:46;;;;;;;;;;;;;;;25.65;44.28;101349.56;5055591;27;96755;-77
2021/08/10 08:39:13;;;;;;;;;;;;;;;25.80;44.04;101356.31;5052976;27;98419;-76
2021/08/10 08:41:41;;;;;;;;;;;;;;;26.05;43.28;101354.97;5053360;27;99384;-76
2021/08/10 08:44:07;;;;;;;;;;;;;;;25.86;43.29;101348.66;5053923;27;97799;-76
2021/08/10 08:46:37;;;;;;;;;;;;;;;25.79;42.14;101354.63;5058358;27;97057;-75
2021/08/10 08:49:03;;;;;;;;;;;;;;;25.57;42.57;101353.91;5064974;27;96855;-76
2021/08/10 08:51:30;;;;;;;;;;;;;;;26.17;41.42;101348.41;5058804;27;99315;-76
2021/08/10 08:53:56;;;;;;;;;;;;;;;26.20;41.57;101331.88;5050433;27;99137;-76
2021/08/10 08:56:23;;;;;;;;;;;;;;;26.37;40.65;101326.81;5054378;27;97606;-76
2021/08/10 08:58:52;;;;;;;;;;;;;;;26.61;40.00;101323.66;5054832;27;96943;-78
2021/08/10 09:01:19;;;;;;;;;;;;;;;26.47;39.08;101331.22;5049593;27;99028;-75
2021/08/10 09:03:46;;;;;;;;;;;;;;;26.32;38.98;101329.09;5050275;27;98821;-77
2021/08/10 09:06:12;;;;;;;;;;;;;;;26.49;39.34;101340.06;5049757;27;97126;-78
2021/08/10 09:08:40;;;;;;;;;;;;;;;26.52;40.12;101339.75;5057563;27;97411;-79
2021/08/10 09:11:11;;;;;;;;;;;;;;;26.43;41.06;101339.78;5054503;27;99298;-77
2021/08/10 09:13:39;;;;;;;;;;;;;;;26.25;40.56;101328.78;5040855;27;98654;-76
2021/08/10 09:16:08;;;;;;;;;;;;;;;26.22;40.23;101331.75;5044273;27;96972;-77
2021/08/10 09:18:36;;;;;;;;;;;;;;;26.45;40.06;101338.63;5043075;27;96753;-78
2021/08/10 09:21:04;;;;;;;;;;;;;;;26.47;40.12;101330.34;5050753;27;99032;-77
2021/08/10 09:23:37;;;;;;;;;;;;;;;26.60;39.93;101325.50;5050119;27;99155;-77
2021/08/10 09:26:04;;;;;;;;;;;;;;;26.77;40.22;101326.63;5052380;27;97076;-75
2021/08/10 09:28:31;;;;;;;;;;;;;;;27.04;38.57;101321.34;5058593;27;96952;-76
2021/08/10 09:31:18;;;;;;;;;;;;;;;27.30;37.33;101316.97;5056472;27;99321;-76
2021/08/10 09:33:45;;;;;;;;;;;;;;;27.66;37.87;101320.69;5052701;27;99225;-76
2021/08/10 09:36:19;;;;;;;;;;;;;;;27.79;36.92;101319.47;5088513;27;97877;-76
2021/08/10 09:38:46;;;;;;;;;;;;;;;28.07;36.14;101324.72;5046661;27;96831;-75
2021/08/10 09:41:14;;;;;;;;;;;;;;;28.20;35.62;101310.78;5056238;27;99975;-77
2021/08/10 09:43:41;;;;;;;;;;;;;;;27.68;37.15;101305.09;5050364;27;98723;-76
2021/08/10 09:46:11;;;;;;;;;;;;;;;27.87;36.24;101320.41;5054955;27;96850;-78
2021/08/10 09:48:39;;;;;;;;;;;;;;;28.01;35.88;101316.34;5057530;27;96878;-76
2021/08/10 09:51:07;;;;;;;;;;;;;;;28.28;36.23;101313.59;5056889;27;98978;-76
2021/08/10 09:53:34;;;;;;;;;;;;;;;28.12;36.22;101316.09;5057560;27;99203;-76
2021/08/10 09:56:00;;;;;;;;;;;;;;;27.85;36.30;101318.84;5056343;27;96934;-76
2021/08/10 09:58:27;;;;;;;;;;;;;;;27.81;37.28;101321.03;5054450;27;97048;-75
2021/08/10 10:00:55;;;;;;;;;;;;;;;27.65;37.72;101318.09;5053345;27;98857;-75
2021/08/10 10:03:22;;;;;;;;;;;;;;;27.49;38.68;101315.19;5050715;27;98820;-75
2021/08/10 10:05:49;;;;;;;;;;;;;;;26.92;39.49;101311.63;5054157;27;96989;-77
2021/08/10 10:08:18;;;;;;;;;;;;;;;26.43;40.75;101315.38;5054520;27;96972;-76
2021/08/10 10:10:45;;;;;;;;;;;;;;;26.54;40.33;101324.22;5050252;27;98406;-76
2021/08/10 10:13:13;;;;;;;;;;;;;;;26.67;39.88;101309.50;5049338;27;98861;-77
2021/08/10 10:15:39;;;;;;;;;;;;;;;27.57;38.70;101312.59;5052862;27;96980;-75
2021/08/10 10:18:06;;;;;;;;;;;;;;;27.40;37.97;101310.63;5047242;27;97826;-76
2021/08/10 10:20:33;;;;;;;;;;;;;;;27.40;37.72;101307.91;5052643;27;99342;-77
2021/08/10 10:23:02;;;;;;;;;;;;;;;26.55;38.69;101309.69;5052132;27;98761;-76
2021/08/10 10:25:31;;;;;;;;;;;;;;;27.07;38.52;101303.91;5041027;27;97648;-76
2021/08/10 10:27:59;;;;;;;;;;;;;;;26.52;39.34;101306.38;5049154;27;97302;-75
2021/08/10 10:30:25;;;;;;;;;;;;;;;26.77;39.25;101307.66;5047282;27;99139;-76
2021/08/10 10:32:52;;;;;;;;;;;;;;;27.06;39.04;101302.19;5054115;27;98982;-76
2021/08/10 10:35:18;;;;;;;;;;;;;;;27.06;38.16;101292.19;5054494;27;97655;-76
2021/08/10 10:37:45;;;;;;;;;;;;;;;27.67;37.67;101291.69;5055307;27;97177;-75
2021/08/10 10:40:12;;;;;;;;;;;;;;;27.57;37.20;101289.00;5053888;27;99102;-76
2021/08/10 10:42:40;;;;;;;;;;;;;;;27.79;36.97;101301.31;5064383;27;99640;-77
2021/08/10 10:45:07;;;;;;;;;;;;;;;27.82;36.73;101298.31;5060927;27;96868;-77
2021/08/10 10:47:35;;;;;;;;;;;;;;;27.93;37.57;101297.22;5059172;27;98013;-77
2021/08/10 10:50:12;;;;;;;;;;;;;;;27.67;37.36;101291.69;5057684;27;98962;-76
2021/08/10 10:52:38;;;;;;;;;;;;;;;27.52;37.70;101293.19;5049751;27;97733;-76
2021/08/10 10:55:06;;;;;;;;;;;;;;;27.59;37.46;101288.84;5048231;27;97263;-77
2021/08/10 10:57:36;;;;;;;;;;;;;;;27.29;37.74;101284.56;5012648;28;96949;-75
2021/08/10 11:03:11;;;;;;;;;;;;;;;27.22;38.36;101278.88;5086630;27;96712;-76
2021/08/10 11:05:39;;;;;;;;;;;;;;;27.35;38.05;101282.09;5067922;27;97670;-76
2021/08/10 11:08:07;;;;;;;;;;;;;;;27.29;38.15;101281.84;5070949;27;97856;-75
2021/08/10 11:10:39;;;;;;;;;;;;;;;27.15;38.64;101294.03;5073514;27;97943;-75
2021/08/10 11:13:06;;;;;;;;;;;;;;;27.01;38.98;101299.91;5075058;27;97227;-76
2021/08/10 11:15:51;;;;;;;;;;;;;;;27.27;38.05;101290.13;5073166;27;97005;-75
2021/08/10 11:18:22;;;;;;;;;;;;;;;27.71;36.90;101293.06;5070274;27;97890;-76
2021/08/10 11:20:51;;;;;;;;;;;;;;;28.30;35.59;101286.25;5072847;27;99545;-76
2021/08/10 11:23:35;;;;;;;;;;;;;;;28.50;35.95;101287.78;5069049;27;97423;-75
2021/08/10 11:26:20;;;;;;;;;;;;;;;28.24;36.25;101278.72;5073791;27;96885;-76
2021/08/10 11:28:47;;;;;;;;;;;;;;;28.93;34.91;101276.09;5073249;27;97654;-77
2021/08/10 11:31:31;;;;;;;;;;;;;;;29.18;34.88;101285.22;5070939;27;99313;-75
2021/08/10 11:33:57;;;;;;;;;;;;;;;28.90;33.91;101279.97;5067104;27;96941;-76
2021/08/10 11:36:26;;;;;;;;;;;;;;;28.95;34.39;101275.94;5071889;27;96810;-77
2021/08/10 11:39:05;;;;;;;;;;;;;;;28.82;34.48;101268.16;5073413;27;99056;-75
2021/08/10 11:41:31;;;;;;;;;;;;;;;28.69;34.54;101267.69;5072340;27;98915;-77
2021/08/10 11:43:58;;;;;;;;;;;;;;;28.45;35.19;101279.25;5074352;27;97199;-75
2021/08/10 11:46:26;;;;;;;;;;;;;;;28.84;34.72;101274.31;5073196;27;96954;-76
2021/08/10 11:48:53;;;;;;;;;;;;;;;29.20;33.79;101266.88;5067562;27;101221;-76
2021/08/10 11:51:21;;;;;;;;;;;;;;;28.99;33.55;101258.25;5074127;27;99489;-75
2021/08/10 11:53:49;;;;;;;;;;;;;;;29.38;33.57;101264.94;5072884;27;97349;-77
2021/08/10 11:56:25;;;;;;;;;;;;;;;29.32;33.69;101260.13;5072768;27;98675;-77
2021/08/10 11:58:52;;;;;;;;;;;;;;;29.44;33.30;101266.16;5071393;27;99265;-75
2021/08/10 12:01:18;;;;;;;;;;;;;;;29.69;34.27;101268.81;5068154;27;98102;-75
2021/08/10 12:03:45;;;;;;;;;;;;;;;28.84;34.42;101263.44;5068388;27;97007;-76
2021/08/10 12:06:11;;;;;;;;;;;;;;;29.06;34.45;101259.31;5071998;27;96851;-75
2021/08/10 12:08:37;;;;;;;;;;;;;;;28.84;34.71;101256.13;5074825;27;98909;-76
2021/08/10 12:11:05;;;;;;;;;;;;;;;28.74;35.25;101249.94;5067874;27;98879;-78
2021/08/10 12:13:32;;;;;;;;;;;;;;;28.44;36.04;101259.38;5060013;27;96831;-76
2021/08/10 12:15:59;;;;;;;;;;;;;;;28.21;36.16;101262.75;5056107;27;98702;-76
2021/08/10 12:18:26;;;;;;;;;;;;;;;28.07;36.71;101253.25;5062368;27;96918;-76
2021/08/10 12:20:57;;;;;;;;;;;;;;;27.73;37.60;101253.06;5055588;27;98803;-77
2021/08/10 12:23:25;;;;;;;;;;;;;;;27.79;36.90;101251.59;5057370;27;97409;-75
2021/08/10 12:25:51;;;;;;;;;;;;;;;27.97;36.54;101250.59;5058942;27;96966;-75
2021/08/10 12:28:19;;;;;;;;;;;;;;;28.54;35.37;101242.97;5056742;27;98994;-77
2021/08/10 12:30:45;;;;;;;;;;;;;;;28.83;34.86;101242.69;5057088;27;97688;-75
2021/08/10 12:33:12;;;;;;;;;;;;;;;29.35;34.77;101243.47;5052775;27;96815;-76
2021/08/10 12:35:38;;;;;;;;;;;;;;;29.73;34.01;101244.81;5058538;27;96995;-77
2021/08/10 12:38:05;;;;;;;;;;;;;;;29.72;33.06;101234.94;5056377;27;99131;-76
2021/08/10 12:40:32;;;;;;;;;;;;;;;29.63;33.13;101244.97;5057677;27;98813;-75